सभी
Kintore Airport (Lake Mackay Northern Territory) YKNT मौसम
|
Lake Mackay Northern Territory (YKNT)
स्वच्छ आकाश
तेज हवाएं |
|
18 °C |
There is no TAF data available at YKNT or any nearby airports.
Recent YKNT METAR history
| Date | Time (ACST) | Flight Rules | Wind Dir. | Speed | Type | Height AGL (ft) | Visibility | Temp (°C) | Temp (°F) | Dew Point (°C) | Dew Point (°F) | Rel. Humid. | Pressure | Density Altitude | Remarks |
|---|---|---|---|---|---|---|---|---|---|---|---|---|---|---|---|
| 05-मई | 01:30 | n/a | 140° | 13 kt | Missing | 18° | 64° | 1° | 33° | 32% | 1019 mb | 1,922 ft | |||
| 05-मई | 00:30 | n/a | 130° | 15 kt | Missing | 18° | 64° | 1° | 33° | 32% | 1019 mb | 1,922 ft | |||
| 04-मई | 23:30 | n/a | 130° | 16 kt | Missing | 18° | 64° | 1° | 33° | 32% | 1020 mb | 1,892 ft | |||
| 04-मई | 22:30 | n/a | 150° | 15 kt | Missing | 18° | 64° | 3° | 37° | 37% | 1020 mb | 1,892 ft | |||
| 04-मई | 21:30 | n/a | 150° | 13 kt | Missing | 18° | 64° | 4° | 39° | 39% | 1020 mb | 1,892 ft | |||
| 04-मई | 20:30 | n/a | 150° | 11 kt | Missing | 19° | 66° | 4° | 39° | 37% | 1020 mb | 2,012 ft | |||
| 04-मई | 19:30 | n/a | 140° | 7 kt | Missing | 20° | 68° | 4° | 39° | 35% | 1019 mb | 2,162 ft | |||
| 04-मई | 18:30 | n/a | 160° | 10 kt | Missing | 22° | 71° | 4° | 39° | 31% | 1018 mb | 2,431 ft | |||
| 04-मई | 17:30 | n/a | 150° | 11 kt | Missing | 24° | 75° | 4° | 39° | 27% | 1018 mb | 2,671 ft | |||
| 04-मई | 16:30 | n/a | 160° | 11 kt | Missing | 25° | 77° | 4° | 39° | 26% | 1018 mb | 2,791 ft | |||
| 04-मई | 15:30 | n/a | 160° | 11 kt | Missing | 25° | 77° | 4° | 39° | 26% | 1017 mb | 2,821 ft | |||
| 04-मई | 14:30 | n/a | 150° | 12 kt | Missing | 25° | 77° | 4° | 39° | 26% | 1018 mb | 2,791 ft | |||
| 04-मई | 13:30 | n/a | 160° | 14 kt | Missing | 24° | 75° | 4° | 39° | 27% | 1019 mb | 2,642 ft | |||
| 04-मई | 12:30 | n/a | 140° | 14 kt | Missing | 24° | 75° | 4° | 39° | 27% | 1019 mb | 2,642 ft | |||
| 04-मई | 11:30 | n/a | 140° | 16 kt | Missing | 22° | 71° | 2° | 35° | 27% | 1020 mb | 2,372 ft | |||
| 04-मई | 10:30 | n/a | 140° | 17 kt | Missing | 20° | 68° | 2° | 35° | 30% | 1021 mb | 2,102 ft | |||
| 04-मई | 09:30 | n/a | 140° | 18 kt | Missing | 18° | 64° | 1° | 33° | 32% | 1020 mb | 1,892 ft | |||
| 04-मई | 08:30 | n/a | 150° | 18 kt | Missing | 16° | 60° | 1° | 33° | 36% | 1020 mb | 1,652 ft | |||
| 04-मई | 07:30 | n/a | 160° | 17 kt | Missing | 14° | 57° | 1° | 33° | 41% | 1019 mb | 1,442 ft | |||
| 04-मई | 06:30 | n/a | 160° | 17 kt | Missing | 13° | 55° | 0° | 32° | 41% | 1018 mb | 1,351 ft | |||
| 04-मई | 05:30 | n/a | 160° | 13 kt | Missing | 14° | 57° | 1° | 33° | 41% | 1018 mb | 1,471 ft | |||
| 04-मई | 04:30 | n/a | 160° | 13 kt | Missing | 14° | 57° | 1° | 33° | 41% | 1018 mb | 1,471 ft | |||
| 04-मई | 03:30 | n/a | 160° | 14 kt | Missing | 14° | 57° | 1° | 33° | 41% | 1018 mb | 1,471 ft | |||
| 04-मई | 02:30 | n/a | 160° | 15 kt | Missing | 15° | 59° | 2° | 35° | 41% | 1018 mb | 1,591 ft |
लॉगिन
| Your browser is unsupported. अपना ब्राऊजर अपग्रेड करें |
